Menalon — SXCH — position and weather

sailwx.info

Track history (hours):
 
Tides and Currents Weather Stations Pressure Air Temp Water Temp Dewpoint Dewpoint Depression Visibility Wind Speed Wind Dir Waves Ship Positions

Menalon

Last reported at 2017-Mar-24 21:34 UTC. Time now 2017-Mar-24 22:06 UTC.
Position N 38°01' E 023°35'.

Length 83 m; draft 4 m.

Type: Ship (hazmat cat C). MMSI: 239741000.

Date/timePositionNaut miles runAvg speedWind from/ knotsBaromVisibWave heightAir tempDewpointWater temp
2017-Mar-24 21:34N 38°01' E 023°35'0 0.1
2017-Mar-24 20:33N 38°01' E 023°35'0 0.1
2017-Mar-24 19:33N 38°01' E 023°35'5 5.3
2017-Mar-24 18:34N 37°56' E 023°35'2 2.2
2017-Mar-24 17:33N 37°54' E 023°33'1 0.7
2017-Mar-24 16:34N 37°55' E 023°34'3 2.7
2017-Mar-24 15:34N 37°57' E 023°35'0 0.0
2017-Mar-24 14:34N 37°57' E 023°35'0 0.0
2017-Mar-24 13:33N 37°57' E 023°35'0 0.0
2017-Mar-24 12:33N 37°57' E 023°35'1 0.6
2017-Mar-24 11:33N 37°57' E 023°36'0 0.0
2017-Mar-24 10:33N 37°57' E 023°36'0 0.0
2017-Mar-24 09:34N 37°57' E 023°36'0 0.0
2017-Mar-24 08:33N 37°57' E 023°36'0 0.0
2017-Mar-24 07:33N 37°57' E 023°36'4 4.4
2017-Mar-24 06:34N 37°54' E 023°33'0 0.3
2017-Mar-24 05:34N 37°53' E 023°33'0 0.1
2017-Mar-24 04:34N 37°53' E 023°33'0 0.0
2017-Mar-24 03:34N 37°53' E 023°33'3 2.8
2017-Mar-24 02:33N 37°56' E 023°34'2 1.6
2017-Mar-24 01:34N 37°57' E 023°35'0 0.0
2017-Mar-24 00:33N 37°57' E 023°35'0 0.0
2017-Mar-23 23:34N 37°57' E 023°35'0 0.0
2017-Mar-23 22:33N 37°57' E 023°35'2 1.6
2017-Mar-23 21:33N 37°56' E 023°34'6 6.5
2017-Mar-23 20:34N 37°52' E 023°27'6 6.4
2017-Mar-23 19:33N 37°52' E 023°19'10 9.5
2017-Mar-23 18:34N 37°54' E 023°07'2 2.0
2017-Mar-23 17:33N 37°55' E 023°05'0 0.0
2017-Mar-23 16:33N 37°55' E 023°05'0 0.0
2017-Mar-23 15:33N 37°55' E 023°05'0 0.0
2017-Mar-23 14:33N 37°55' E 023°05'0 0.0
2017-Mar-23 13:34N 37°55' E 023°05'1 0.1
2017-Mar-22 18:26N 37°55' E 023°04'0 0.0
2017-Mar-22 16:27N 37°55' E 023°04'0 0.0
2017-Mar-22 15:31N 37°55' E 023°04'0 0.0
2017-Mar-22 14:33N 37°55' E 023°04'6 2.6
2017-Mar-22 12:13N 37°54' E 023°12'710.1
2017-Mar-22 11:34N 37°53' E 023°20'10 9.5
2017-Mar-22 10:33N 37°54' E 023°32'2 1.9
2017-Mar-22 09:34N 37°55' E 023°34'0 0.1
2017-Mar-22 08:34N 37°55' E 023°34'3 3.0
2017-Mar-22 07:34N 37°53' E 023°32'0 0.0
2017-Mar-22 06:34N 37°53' E 023°32'0 0.0
2017-Mar-22 05:33N 37°53' E 023°32'0 0.0
2017-Mar-22 04:34N 37°53' E 023°32'0 0.0
2017-Mar-22 03:34N 37°53' E 023°32'0 0.0
2017-Mar-22 02:34N 37°53' E 023°32'1 0.9
2017-Mar-22 01:34N 37°54' E 023°33'4 4.0
2017-Mar-22 00:33N 37°57' E 023°35'0 0.0
2017-Mar-21 23:33N 37°57' E 023°35'0 0.0
2017-Mar-21 22:33N 37°57' E 023°35'0 0.0
2017-Mar-21 21:33N 37°57' E 023°35'0 0.0
2017-Mar-21 20:13N 37°57' E 023°35'0 0.0
2017-Mar-21 19:33N 37°57' E 023°35'0 0.0
2017-Mar-21 18:33N 37°57' E 023°35'0 0.0
2017-Mar-21 17:33N 37°57' E 023°35'0 0.0
2017-Mar-21 16:34N 37°57' E 023°35'0 0.3
2017-Mar-21 15:34N 37°57' E 023°35'2 1.9
2017-Mar-21 14:33N 37°55' E 023°33'0 0.0
2017-Mar-21 13:34N 37°55' E 023°33'0 0.0
2017-Mar-21 12:34N 37°55' E 023°33'0 0.0
2017-Mar-21 11:33N 37°55' E 023°33'0 0.0
2017-Mar-21 10:34N 37°55' E 023°33'0 0.0
2017-Mar-21 09:34N 37°55' E 023°33'0 0.1
2017-Mar-21 08:33N 37°55' E 023°33'0 0.1
2017-Mar-21 07:33N 37°55' E 023°33'0 0.0
2017-Mar-21 06:32N 37°55' E 023°33'0 0.0
2017-Mar-21 05:33N 37°55' E 023°33'0 0.0
2017-Mar-21 04:34N 37°55' E 023°33'0 0.0
2017-Mar-21 03:34N 37°55' E 023°33'0 0.0
2017-Mar-21 02:34N 37°55' E 023°33'0 0.0
2017-Mar-21 01:33N 37°55' E 023°33'0 0.0
2017-Mar-21 00:33N 37°55' E 023°33'0 0.0
2017-Mar-20 23:33N 37°55' E 023°33'0 0.0
2017-Mar-20 22:33N 37°55' E 023°33'0 0.0
2017-Mar-20 21:33N 37°55' E 023°33'0 0.0
2017-Mar-20 20:34N 37°55' E 023°33'0 0.0
2017-Mar-20 19:34N 37°55' E 023°33'0 0.0
2017-Mar-20 18:33N 37°55' E 023°33'0 0.0
2017-Mar-20 17:34N 37°55' E 023°33'0 0.0
2017-Mar-20 16:34N 37°55' E 023°33'0 0.0
2017-Mar-20 15:34N 37°55' E 023°33'0 0.0
2017-Mar-20 14:34N 37°56' E 023°33'0 0.0
2017-Mar-20 13:34N 37°56' E 023°33'0 0.0
2017-Mar-20 12:34N 37°55' E 023°33'0 0.0
2017-Mar-20 11:33N 37°55' E 023°33'0 0.0
2017-Mar-20 10:33N 37°55' E 023°33'0 0.0
2017-Mar-20 09:33N 37°56' E 023°33'0 0.1
2017-Mar-20 08:33N 37°55' E 023°33'3 3.4
2017-Mar-20 07:33N 37°59' E 023°33'4 3.7
2017-Mar-20 06:34N 38°02' E 023°36'0 0.0
2017-Mar-20 05:33N 38°02' E 023°36'0 0.0
2017-Mar-20 04:34N 38°02' E 023°36'0 0.0
2017-Mar-20 03:33N 38°02' E 023°36'0 0.0
2017-Mar-20 02:33N 38°02' E 023°36'0 0.0
2017-Mar-20 01:33N 38°02' E 023°36'0 0.0
2017-Mar-20 00:33N 38°02' E 023°36'0 0.0
2017-Mar-19 23:33N 38°02' E 023°36'0 0.0
2017-Mar-19 22:33N 38°02' E 023°36'0 0.0
2017-Mar-19 21:33N 38°02' E 023°36'0 0.0
2017-Mar-19 20:33N 38°02' E 023°36'0 0.0
2017-Mar-19 19:33N 38°02' E 023°36'0 0.0
2017-Mar-19 18:33N 38°02' E 023°36'0 0.0
2017-Mar-19 17:33N 38°02' E 023°36'0 0.0
2017-Mar-19 16:33N 38°02' E 023°36'0 0.3
2017-Mar-19 15:33N 38°02' E 023°35'0 0.0
2017-Mar-19 14:33N 38°02' E 023°35'0 0.0
2017-Mar-19 13:34N 38°02' E 023°35'0 0.0
2017-Mar-19 12:33N 38°02' E 023°35'1 1.4
2017-Mar-19 11:33N 38°01' E 023°34'4 3.6
2017-Mar-19 10:34N 37°57' E 023°36'0 0.0
2017-Mar-19 09:33N 37°57' E 023°36'0 0.0
2017-Mar-19 08:33N 37°57' E 023°36'0 0.0
2017-Mar-19 07:33N 37°57' E 023°36'0 0.3
2017-Mar-19 06:31N 37°57' E 023°36'2 2.1
2017-Mar-19 05:33N 37°56' E 023°34'0 0.0
2017-Mar-19 04:34N 37°56' E 023°34'0 0.0
2017-Mar-19 03:33N 37°56' E 023°34'0 0.0
2017-Mar-19 02:33N 37°56' E 023°34'0 0.0
2017-Mar-19 01:34N 37°56' E 023°34'0 0.1
2017-Mar-19 00:33N 37°56' E 023°34'0 0.0
2017-Mar-18 23:33N 37°56' E 023°34'0 0.0
2017-Mar-18 22:34N 37°56' E 023°34'0 0.1
2017-Mar-18 21:33N 37°56' E 023°34'0 0.0
2017-Mar-18 20:33N 37°56' E 023°34'0 0.0
2017-Mar-18 19:34N 37°56' E 023°34'0 0.0
2017-Mar-18 18:34N 37°56' E 023°34'0 0.0
2017-Mar-18 17:33N 37°56' E 023°34'0 0.0
2017-Mar-18 16:33N 37°56' E 023°34'0 0.0
2017-Mar-18 15:33N 37°56' E 023°34'0 0.0
2017-Mar-18 14:33N 37°56' E 023°34'0 0.0
2017-Mar-18 13:33N 37°56' E 023°34'0 0.0
2017-Mar-18 12:33N 37°56' E 023°34'0 0.0
2017-Mar-18 11:34N 37°56' E 023°34'0 0.0
2017-Mar-18 10:33N 37°56' E 023°34'0 0.0
2017-Mar-18 09:33N 37°56' E 023°34'0 0.0
2017-Mar-18 08:34N 37°56' E 023°34'0 0.1
2017-Mar-18 07:33N 37°56' E 023°34'0 0.0
2017-Mar-18 06:33N 37°56' E 023°34'0 0.0
2017-Mar-18 05:33N 37°56' E 023°34'0 0.0
2017-Mar-18 04:34N 37°56' E 023°34'0 0.0
2017-Mar-18 03:33N 37°56' E 023°34'0 0.0
2017-Mar-18 02:33N 37°56' E 023°34'0 0.0
2017-Mar-18 01:30N 37°56' E 023°34'0 0.0
2017-Mar-18 00:33N 37°56' E 023°34'0 0.0
2017-Mar-17 23:33N 37°56' E 023°34'0 0.0
2017-Mar-17 22:33N 37°56' E 023°34'0 0.0
2017-Mar-17 21:34N 37°56' E 023°34'3 3.0
2017-Mar-17 20:25N 37°53' E 023°32'1 1.5
2017-Mar-17 19:32N 37°52' E 023°30'0 0.0
2017-Mar-17 18:33N 37°52' E 023°30'0 0.0
2017-Mar-17 17:33N 37°52' E 023°31'0 0.1
2017-Mar-17 16:33N 37°52' E 023°31'1 1.4
2017-Mar-17 15:33N 37°53' E 023°31'1 0.5
2017-Mar-17 14:32N 37°52' E 023°31'0 0.0
2017-Mar-17 11:22N 37°52' E 023°31'0 0.1
2017-Mar-17 10:34N 37°52' E 023°31'0 0.0
2017-Mar-17 09:33N 37°52' E 023°31'2 2.0
2017-Mar-17 08:31N 37°54' E 023°33'2 2.1
2017-Mar-17 07:33N 37°56' E 023°34'0 0.0
2017-Mar-17 06:34N 37°56' E 023°34'0 0.0
2017-Mar-17 05:33N 37°56' E 023°34'0 0.0
2017-Mar-17 04:34N 37°56' E 023°34'0 0.0
2017-Mar-17 03:34N 37°56' E 023°34'0 0.0
2017-Mar-17 02:34N 37°56' E 023°34'0 0.0
2017-Mar-17 01:33N 37°56' E 023°34'0 0.0
2017-Mar-17 00:34N 37°56' E 023°34'0 0.0
2017-Mar-16 23:33N 37°56' E 023°34'0 0.1
2017-Mar-16 22:33N 37°56' E 023°34'0 0.0
2017-Mar-16 21:33N 37°56' E 023°34'0 0.1
2017-Mar-16 20:33N 37°56' E 023°34'0 0.1
2017-Mar-16 19:33N 37°56' E 023°34'0 0.0
2017-Mar-16 18:33N 37°56' E 023°34'0 0.1
2017-Mar-16 17:33N 37°56' E 023°34'0 0.0
2017-Mar-16 16:33N 37°56' E 023°34'0 0.1
2017-Mar-16 15:33N 37°56' E 023°34'0 0.0
2017-Mar-16 14:33N 37°56' E 023°34'0 0.0
2017-Mar-16 13:33N 37°56' E 023°34'0 0.0
2017-Mar-16 12:33N 37°56' E 023°34'0 0.1
2017-Mar-16 11:33N 37°56' E 023°34'3 2.9
2017-Mar-16 10:33N 37°53' E 023°32'0 0.1
2017-Mar-16 09:33N 37°53' E 023°32'0 0.1
2017-Mar-16 08:33N 37°53' E 023°32'0 0.0
2017-Mar-16 07:33N 37°53' E 023°32'4 3.9
2017-Mar-16 06:33N 37°56' E 023°35'5 5.3
2017-Mar-16 05:33N 38°02' E 023°36'0 0.0
2017-Mar-16 04:34N 38°02' E 023°36'0 0.0
2017-Mar-16 03:33N 38°02' E 023°36'0 0.0
2017-Mar-16 02:34N 38°02' E 023°36'0 0.0
2017-Mar-16 01:33N 38°02' E 023°36'0 0.2
2017-Mar-16 00:34N 38°02' E 023°35'8 8.3
2017-Mar-15 23:34N 37°59' E 023°25'8 8.4
2017-Mar-15 22:33N 37°55' E 023°16'9 8.4
2017-Mar-15 21:32N 37°55' E 023°05'0 0.0
2017-Mar-15 17:32N 37°55' E 023°05'0 0.0
2017-Mar-15 16:33N 37°55' E 023°05'0 0.1
2017-Mar-15 15:32N 37°55' E 023°05'7 6.8
2017-Mar-15 14:33N 37°54' E 023°14'1010.1
2017-Mar-15 13:33N 37°52' E 023°26'7 6.5
2017-Mar-15 12:33N 37°55' E 023°33'0 0.0
2017-Mar-15 11:33N 37°55' E 023°33'0 0.1
2017-Mar-15 10:33N 37°55' E 023°33'0 0.1
2017-Mar-15 09:34N 37°55' E 023°33'0 0.0
2017-Mar-15 08:33N 37°55' E 023°33'0 0.0
2017-Mar-15 07:33N 37°55' E 023°33'0 0.0
2017-Mar-15 06:33N 37°55' E 023°33'0 0.0
2017-Mar-15 05:33N 37°55' E 023°33'0 0.0
2017-Mar-15 04:33N 37°55' E 023°33'0 0.0
2017-Mar-15 03:33N 37°55' E 023°33'0 0.0
2017-Mar-15 02:33N 37°55' E 023°33'0 0.0
2017-Mar-15 01:33N 37°55' E 023°33'0 0.1
2017-Mar-15 00:33N 37°55' E 023°33'0 0.1
2017-Mar-14 23:33N 37°55' E 023°33'0 0.0
2017-Mar-14 22:33N 37°55' E 023°33'  
Track history (hours):
 
Tides and Currents Weather Stations Pressure Air Temp Water Temp Dewpoint Dewpoint Depression Visibility Wind Speed Wind Dir Waves Ship Positions

Menalon

Last reported at 2017-Mar-24 21:34 UTC. Time now 2017-Mar-24 22:06 UTC.
Position N 38°01' E 023°35'.

Length 83 m; draft 4 m.

Type: Ship (hazmat cat C). MMSI: 239741000.

Date/timePositionNaut miles runAvg speedWind from/ knotsBaromVisibWave heightAir tempDewpointWater temp
2017-Mar-24 21:34N 38°01' E 023°35'0 0.1
2017-Mar-24 20:33N 38°01' E 023°35'0 0.1
2017-Mar-24 19:33N 38°01' E 023°35'5 5.3
2017-Mar-24 18:34N 37°56' E 023°35'2 2.2
2017-Mar-24 17:33N 37°54' E 023°33'1 0.7
2017-Mar-24 16:34N 37°55' E 023°34'3 2.7
2017-Mar-24 15:34N 37°57' E 023°35'0 0.0
2017-Mar-24 14:34N 37°57' E 023°35'0 0.0
2017-Mar-24 13:33N 37°57' E 023°35'0 0.0
2017-Mar-24 12:33N 37°57' E 023°35'1 0.6
2017-Mar-24 11:33N 37°57' E 023°36'0 0.0
2017-Mar-24 10:33N 37°57' E 023°36'0 0.0
2017-Mar-24 09:34N 37°57' E 023°36'0 0.0
2017-Mar-24 08:33N 37°57' E 023°36'0 0.0
2017-Mar-24 07:33N 37°57' E 023°36'4 4.4
2017-Mar-24 06:34N 37°54' E 023°33'0 0.3
2017-Mar-24 05:34N 37°53' E 023°33'0 0.1
2017-Mar-24 04:34N 37°53' E 023°33'0 0.0
2017-Mar-24 03:34N 37°53' E 023°33'3 2.8
2017-Mar-24 02:33N 37°56' E 023°34'2 1.6
2017-Mar-24 01:34N 37°57' E 023°35'0 0.0
2017-Mar-24 00:33N 37°57' E 023°35'0 0.0
2017-Mar-23 23:34N 37°57' E 023°35'0 0.0
2017-Mar-23 22:33N 37°57' E 023°35'2 1.6
2017-Mar-23 21:33N 37°56' E 023°34'6 6.5
2017-Mar-23 20:34N 37°52' E 023°27'6 6.4
2017-Mar-23 19:33N 37°52' E 023°19'10 9.5
2017-Mar-23 18:34N 37°54' E 023°07'2 2.0
2017-Mar-23 17:33N 37°55' E 023°05'0 0.0
2017-Mar-23 16:33N 37°55' E 023°05'0 0.0
2017-Mar-23 15:33N 37°55' E 023°05'0 0.0
2017-Mar-23 14:33N 37°55' E 023°05'0 0.0
2017-Mar-23 13:34N 37°55' E 023°05'1 0.1
2017-Mar-22 18:26N 37°55' E 023°04'0 0.0
2017-Mar-22 16:27N 37°55' E 023°04'0 0.0
2017-Mar-22 15:31N 37°55' E 023°04'0 0.0
2017-Mar-22 14:33N 37°55' E 023°04'6 2.6
2017-Mar-22 12:13N 37°54' E 023°12'710.1
2017-Mar-22 11:34N 37°53' E 023°20'10 9.5
2017-Mar-22 10:33N 37°54' E 023°32'2 1.9
2017-Mar-22 09:34N 37°55' E 023°34'0 0.1
2017-Mar-22 08:34N 37°55' E 023°34'3 3.0
2017-Mar-22 07:34N 37°53' E 023°32'0 0.0
2017-Mar-22 06:34N 37°53' E 023°32'0 0.0
2017-Mar-22 05:33N 37°53' E 023°32'0 0.0
2017-Mar-22 04:34N 37°53' E 023°32'0 0.0
2017-Mar-22 03:34N 37°53' E 023°32'0 0.0
2017-Mar-22 02:34N 37°53' E 023°32'1 0.9
2017-Mar-22 01:34N 37°54' E 023°33'4 4.0
2017-Mar-22 00:33N 37°57' E 023°35'0 0.0
2017-Mar-21 23:33N 37°57' E 023°35'0 0.0
2017-Mar-21 22:33N 37°57' E 023°35'0 0.0
2017-Mar-21 21:33N 37°57' E 023°35'0 0.0
2017-Mar-21 20:13N 37°57' E 023°35'0 0.0
2017-Mar-21 19:33N 37°57' E 023°35'0 0.0
2017-Mar-21 18:33N 37°57' E 023°35'0 0.0
2017-Mar-21 17:33N 37°57' E 023°35'0 0.0
2017-Mar-21 16:34N 37°57' E 023°35'0 0.3
2017-Mar-21 15:34N 37°57' E 023°35'2 1.9
2017-Mar-21 14:33N 37°55' E 023°33'0 0.0
2017-Mar-21 13:34N 37°55' E 023°33'0 0.0
2017-Mar-21 12:34N 37°55' E 023°33'0 0.0
2017-Mar-21 11:33N 37°55' E 023°33'0 0.0
2017-Mar-21 10:34N 37°55' E 023°33'0 0.0
2017-Mar-21 09:34N 37°55' E 023°33'0 0.1
2017-Mar-21 08:33N 37°55' E 023°33'0 0.1
2017-Mar-21 07:33N 37°55' E 023°33'0 0.0
2017-Mar-21 06:32N 37°55' E 023°33'0 0.0
2017-Mar-21 05:33N 37°55' E 023°33'0 0.0
2017-Mar-21 04:34N 37°55' E 023°33'0 0.0
2017-Mar-21 03:34N 37°55' E 023°33'0 0.0
2017-Mar-21 02:34N 37°55' E 023°33'0 0.0
2017-Mar-21 01:33N 37°55' E 023°33'0 0.0
2017-Mar-21 00:33N 37°55' E 023°33'0 0.0
2017-Mar-20 23:33N 37°55' E 023°33'0 0.0
2017-Mar-20 22:33N 37°55' E 023°33'0 0.0
2017-Mar-20 21:33N 37°55' E 023°33'0 0.0
2017-Mar-20 20:34N 37°55' E 023°33'0 0.0
2017-Mar-20 19:34N 37°55' E 023°33'0 0.0
2017-Mar-20 18:33N 37°55' E 023°33'0 0.0
2017-Mar-20 17:34N 37°55' E 023°33'0 0.0
2017-Mar-20 16:34N 37°55' E 023°33'0 0.0
2017-Mar-20 15:34N 37°55' E 023°33'0 0.0
2017-Mar-20 14:34N 37°56' E 023°33'0 0.0
2017-Mar-20 13:34N 37°56' E 023°33'0 0.0
2017-Mar-20 12:34N 37°55' E 023°33'0 0.0
2017-Mar-20 11:33N 37°55' E 023°33'0 0.0
2017-Mar-20 10:33N 37°55' E 023°33'0 0.0
2017-Mar-20 09:33N 37°56' E 023°33'0 0.1
2017-Mar-20 08:33N 37°55' E 023°33'3 3.4
2017-Mar-20 07:33N 37°59' E 023°33'4 3.7
2017-Mar-20 06:34N 38°02' E 023°36'0 0.0
2017-Mar-20 05:33N 38°02' E 023°36'0 0.0
2017-Mar-20 04:34N 38°02' E 023°36'0 0.0
2017-Mar-20 03:33N 38°02' E 023°36'0 0.0
2017-Mar-20 02:33N 38°02' E 023°36'0 0.0
2017-Mar-20 01:33N 38°02' E 023°36'0 0.0
2017-Mar-20 00:33N 38°02' E 023°36'0 0.0
2017-Mar-19 23:33N 38°02' E 023°36'0 0.0
2017-Mar-19 22:33N 38°02' E 023°36'0 0.0
2017-Mar-19 21:33N 38°02' E 023°36'0 0.0
2017-Mar-19 20:33N 38°02' E 023°36'0 0.0
2017-Mar-19 19:33N 38°02' E 023°36'0 0.0
2017-Mar-19 18:33N 38°02' E 023°36'0 0.0
2017-Mar-19 17:33N 38°02' E 023°36'0 0.0
2017-Mar-19 16:33N 38°02' E 023°36'0 0.3
2017-Mar-19 15:33N 38°02' E 023°35'0 0.0
2017-Mar-19 14:33N 38°02' E 023°35'0 0.0
2017-Mar-19 13:34N 38°02' E 023°35'0 0.0
2017-Mar-19 12:33N 38°02' E 023°35'1 1.4
2017-Mar-19 11:33N 38°01' E 023°34'4 3.6
2017-Mar-19 10:34N 37°57' E 023°36'0 0.0
2017-Mar-19 09:33N 37°57' E 023°36'0 0.0
2017-Mar-19 08:33N 37°57' E 023°36'0 0.0
2017-Mar-19 07:33N 37°57' E 023°36'0 0.3
2017-Mar-19 06:31N 37°57' E 023°36'2 2.1
2017-Mar-19 05:33N 37°56' E 023°34'0 0.0
2017-Mar-19 04:34N 37°56' E 023°34'0 0.0
2017-Mar-19 03:33N 37°56' E 023°34'0 0.0
2017-Mar-19 02:33N 37°56' E 023°34'0 0.0
2017-Mar-19 01:34N 37°56' E 023°34'0 0.1
2017-Mar-19 00:33N 37°56' E 023°34'0 0.0
2017-Mar-18 23:33N 37°56' E 023°34'0 0.0
2017-Mar-18 22:34N 37°56' E 023°34'0 0.1
2017-Mar-18 21:33N 37°56' E 023°34'0 0.0
2017-Mar-18 20:33N 37°56' E 023°34'0 0.0
2017-Mar-18 19:34N 37°56' E 023°34'0 0.0
2017-Mar-18 18:34N 37°56' E 023°34'0 0.0
2017-Mar-18 17:33N 37°56' E 023°34'0 0.0
2017-Mar-18 16:33N 37°56' E 023°34'0 0.0
2017-Mar-18 15:33N 37°56' E 023°34'0 0.0
2017-Mar-18 14:33N 37°56' E 023°34'0 0.0
2017-Mar-18 13:33N 37°56' E 023°34'0 0.0
2017-Mar-18 12:33N 37°56' E 023°34'0 0.0
2017-Mar-18 11:34N 37°56' E 023°34'0 0.0
2017-Mar-18 10:33N 37°56' E 023°34'0 0.0
2017-Mar-18 09:33N 37°56' E 023°34'0 0.0
2017-Mar-18 08:34N 37°56' E 023°34'0 0.1
2017-Mar-18 07:33N 37°56' E 023°34'0 0.0
2017-Mar-18 06:33N 37°56' E 023°34'0 0.0
2017-Mar-18 05:33N 37°56' E 023°34'0 0.0
2017-Mar-18 04:34N 37°56' E 023°34'0 0.0
2017-Mar-18 03:33N 37°56' E 023°34'0 0.0
2017-Mar-18 02:33N 37°56' E 023°34'0 0.0
2017-Mar-18 01:30N 37°56' E 023°34'0 0.0
2017-Mar-18 00:33N 37°56' E 023°34'0 0.0
2017-Mar-17 23:33N 37°56' E 023°34'0 0.0
2017-Mar-17 22:33N 37°56' E 023°34'0 0.0
2017-Mar-17 21:34N 37°56' E 023°34'3 3.0
2017-Mar-17 20:25N 37°53' E 023°32'1 1.5
2017-Mar-17 19:32N 37°52' E 023°30'0 0.0
2017-Mar-17 18:33N 37°52' E 023°30'0 0.0
2017-Mar-17 17:33N 37°52' E 023°31'0 0.1
2017-Mar-17 16:33N 37°52' E 023°31'1 1.4
2017-Mar-17 15:33N 37°53' E 023°31'1 0.5
2017-Mar-17 14:32N 37°52' E 023°31'0 0.0
2017-Mar-17 11:22N 37°52' E 023°31'0 0.1
2017-Mar-17 10:34N 37°52' E 023°31'0 0.0
2017-Mar-17 09:33N 37°52' E 023°31'2 2.0
2017-Mar-17 08:31N 37°54' E 023°33'2 2.1
2017-Mar-17 07:33N 37°56' E 023°34'0 0.0
2017-Mar-17 06:34N 37°56' E 023°34'0 0.0
2017-Mar-17 05:33N 37°56' E 023°34'0 0.0
2017-Mar-17 04:34N 37°56' E 023°34'0 0.0
2017-Mar-17 03:34N 37°56' E 023°34'0 0.0
2017-Mar-17 02:34N 37°56' E 023°34'0 0.0
2017-Mar-17 01:33N 37°56' E 023°34'0 0.0
2017-Mar-17 00:34N 37°56' E 023°34'0 0.0
2017-Mar-16 23:33N 37°56' E 023°34'0 0.1
2017-Mar-16 22:33N 37°56' E 023°34'0 0.0
2017-Mar-16 21:33N 37°56' E 023°34'0 0.1
2017-Mar-16 20:33N 37°56' E 023°34'0 0.1
2017-Mar-16 19:33N 37°56' E 023°34'0 0.0
2017-Mar-16 18:33N 37°56' E 023°34'0 0.1
2017-Mar-16 17:33N 37°56' E 023°34'0 0.0
2017-Mar-16 16:33N 37°56' E 023°34'0 0.1
2017-Mar-16 15:33N 37°56' E 023°34'0 0.0
2017-Mar-16 14:33N 37°56' E 023°34'0 0.0
2017-Mar-16 13:33N 37°56' E 023°34'0 0.0
2017-Mar-16 12:33N 37°56' E 023°34'0 0.1
2017-Mar-16 11:33N 37°56' E 023°34'3 2.9
2017-Mar-16 10:33N 37°53' E 023°32'0 0.1
2017-Mar-16 09:33N 37°53' E 023°32'0 0.1
2017-Mar-16 08:33N 37°53' E 023°32'0 0.0
2017-Mar-16 07:33N 37°53' E 023°32'4 3.9
2017-Mar-16 06:33N 37°56' E 023°35'5 5.3
2017-Mar-16 05:33N 38°02' E 023°36'0 0.0
2017-Mar-16 04:34N 38°02' E 023°36'0 0.0
2017-Mar-16 03:33N 38°02' E 023°36'0 0.0
2017-Mar-16 02:34N 38°02' E 023°36'0 0.0
2017-Mar-16 01:33N 38°02' E 023°36'0 0.2
2017-Mar-16 00:34N 38°02' E 023°35'8 8.3
2017-Mar-15 23:34N 37°59' E 023°25'8 8.4
2017-Mar-15 22:33N 37°55' E 023°16'9 8.4
2017-Mar-15 21:32N 37°55' E 023°05'0 0.0
2017-Mar-15 17:32N 37°55' E 023°05'0 0.0
2017-Mar-15 16:33N 37°55' E 023°05'0 0.1
2017-Mar-15 15:32N 37°55' E 023°05'7 6.8
2017-Mar-15 14:33N 37°54' E 023°14'1010.1
2017-Mar-15 13:33N 37°52' E 023°26'7 6.5
2017-Mar-15 12:33N 37°55' E 023°33'0 0.0
2017-Mar-15 11:33N 37°55' E 023°33'0 0.1
2017-Mar-15 10:33N 37°55' E 023°33'0 0.1
2017-Mar-15 09:34N 37°55' E 023°33'0 0.0
2017-Mar-15 08:33N 37°55' E 023°33'0 0.0
2017-Mar-15 07:33N 37°55' E 023°33'0 0.0
2017-Mar-15 06:33N 37°55' E 023°33'0 0.0
2017-Mar-15 05:33N 37°55' E 023°33'0 0.0
2017-Mar-15 04:33N 37°55' E 023°33'0 0.0
2017-Mar-15 03:33N 37°55' E 023°33'0 0.0
2017-Mar-15 02:33N 37°55' E 023°33'0 0.0
2017-Mar-15 01:33N 37°55' E 023°33'0 0.1
2017-Mar-15 00:33N 37°55' E 023°33'0 0.1
2017-Mar-14 23:33N 37°55' E 023°33'0 0.0
2017-Mar-14 22:33N 37°55' E 023°33'  

Dump ship's entire track history